sensor_id;sensor_type;location;lat;lon;timestamp;pressure;altitude;pressure_sealevel;temperature;humidity
21960;BME280;11144;43.030;25.108;2022-07-23T00:00:05;99241.38;;;19.63;100.00
21960;BME280;11144;43.030;25.108;2022-07-23T00:01:39;99240.28;;;19.65;100.00
21960;BME280;11144;43.030;25.108;2022-07-23T00:03:13;99247.19;;;19.57;100.00
21960;BME280;11144;43.030;25.108;2022-07-23T00:04:46;99249.25;;;19.53;100.00
21960;BME280;11144;43.030;25.108;2022-07-23T00:06:20;99252.66;;;19.55;100.00
21960;BME280;11144;43.030;25.108;2022-07-23T00:07:53;99249.97;;;19.55;100.00
21960;BME280;11144;43.030;25.108;2022-07-23T00:09:27;99255.56;;;19.52;100.00
21960;BME280;11144;43.030;25.108;2022-07-23T00:11:04;99252.16;;;19.50;100.00
21960;BME280;11144;43.030;25.108;2022-07-23T00:12:39;99252.38;;;19.47;100.00
21960;BME280;11144;43.030;25.108;2022-07-23T00:14:22;99249.69;;;19.47;100.00
21960;BME280;11144;43.030;25.108;2022-07-23T00:15:56;99254.06;;;19.48;100.00
21960;BME280;11144;43.030;25.108;2022-07-23T00:17:28;99253.09;;;19.49;100.00
21960;BME280;11144;43.030;25.108;2022-07-23T00:19:01;99248.25;;;19.54;100.00
21960;BME280;11144;43.030;25.108;2022-07-23T00:20:35;99247.28;;;19.55;100.00
21960;BME280;11144;43.030;25.108;2022-07-23T00:22:09;99250.94;;;19.54;100.00
21960;BME280;11144;43.030;25.108;2022-07-23T00:23:42;99251.94;;;19.53;100.00
21960;BME280;11144;43.030;25.108;2022-07-23T00:25:15;99246.78;;;19.50;100.00
21960;BME280;11144;43.030;25.108;2022-07-23T00:27:05;99245.03;;;19.49;100.00
21960;BME280;11144;43.030;25.108;2022-07-23T00:28:38;99253.09;;;19.49;100.00
21960;BME280;11144;43.030;25.108;2022-07-23T00:30:13;99228.53;;;19.43;100.00
21960;BME280;11144;43.030;25.108;2022-07-23T00:31:46;99255.78;;;19.49;100.00
21960;BME280;11144;43.030;25.108;2022-07-23T00:33:19;99252.16;;;19.50;100.00
21960;BME280;11144;43.030;25.108;2022-07-23T00:34:52;99255.56;;;19.52;100.00
21960;BME280;11144;43.030;25.108;2022-07-23T00:36:26;99255.78;;;19.49;100.00
21960;BME280;11144;43.030;25.108;2022-07-23T00:38:00;99254.06;;;19.48;100.00
21960;BME280;11144;43.030;25.108;2022-07-23T00:39:34;99254.94;;;19.49;100.00
21960;BME280;11144;43.030;25.108;2022-07-23T00:41:07;99250.41;;;19.49;100.00
21960;BME280;11144;43.030;25.108;2022-07-23T00:42:42;99255.78;;;19.49;100.00
21960;BME280;11144;43.030;25.108;2022-07-23T00:44:20;99251.59;;;19.45;100.00
21960;BME280;11144;43.030;25.108;2022-07-23T00:45:53;99248.91;;;19.45;100.00
21960;BME280;11144;43.030;25.108;2022-07-23T00:47:27;99252.59;;;19.44;100.00
21960;BME280;11144;43.030;25.108;2022-07-23T00:49:01;99250.88;;;19.43;100.00
21960;BME280;11144;43.030;25.108;2022-07-23T00:50:35;99252.28;;;19.36;100.00
21960;BME280;11144;43.030;25.108;2022-07-23T00:52:08;99248.84;;;19.34;100.00
21960;BME280;11144;43.030;25.108;2022-07-23T00:53:42;99256.03;;;19.21;100.00
21960;BME280;11144;43.030;25.108;2022-07-23T00:55:16;99247.69;;;19.13;100.00
21960;BME280;11144;43.030;25.108;2022-07-23T00:56:50;99251.59;;;18.97;100.00
21960;BME280;11144;43.030;25.108;2022-07-23T00:58:25;99249.44;;;18.89;100.00
21960;BME280;11144;43.030;25.108;2022-07-23T00:59:58;99247.72;;;18.88;100.00
21960;BME280;11144;43.030;25.108;2022-07-23T01:01:31;99253.28;;;18.85;100.00
21960;BME280;11144;43.030;25.108;2022-07-23T01:03:05;99248.91;;;18.84;100.00
21960;BME280;11144;43.030;25.108;2022-07-23T01:04:39;99250.50;;;18.87;100.00
21960;BME280;11144;43.030;25.108;2022-07-23T01:06:11;99249.88;;;18.83;100.00
21960;BME280;11144;43.030;25.108;2022-07-23T01:07:45;99241.50;;;18.75;100.00
21960;BME280;11144;43.030;25.108;2022-07-23T01:09:22;99250.50;;;18.74;100.00
21960;BME280;11144;43.030;25.108;2022-07-23T01:10:56;99238.72;;;18.64;100.00
21960;BME280;11144;43.030;25.108;2022-07-23T01:12:29;99247.72;;;18.63;100.00
21960;BME280;11144;43.030;25.108;2022-07-23T01:14:10;99255.25;;;18.58;100.00
21960;BME280;11144;43.030;25.108;2022-07-23T01:15:44;99249.97;;;18.57;100.00
21960;BME280;11144;43.030;25.108;2022-07-23T01:17:17;99250.09;;;18.55;100.00
21960;BME280;11144;43.030;25.108;2022-07-23T01:18:50;99244.94;;;18.52;100.00
21960;BME280;11144;43.030;25.108;2022-07-23T01:20:24;99248.25;;;18.43;100.00
21960;BME280;11144;43.030;25.108;2022-07-23T01:21:58;99247.91;;;18.35;100.00
21960;BME280;11144;43.030;25.108;2022-07-23T01:23:35;99249.59;;;18.24;100.00
21960;BME280;11144;43.030;25.108;2022-07-23T01:25:08;99253.22;;;18.23;100.00
21960;BME280;11144;43.030;25.108;2022-07-23T01:26:44;99249.59;;;18.24;100.00
21960;BME280;11144;43.030;25.108;2022-07-23T01:28:18;99257.50;;;18.25;100.00
21960;BME280;11144;43.030;25.108;2022-07-23T01:29:54;99260.81;;;18.29;100.00
21960;BME280;11144;43.030;25.108;2022-07-23T01:31:28;99242.75;;;18.32;100.00
21960;BME280;11144;43.030;25.108;2022-07-23T01:33:02;99251.16;;;18.40;100.00
21960;BME280;11144;43.030;25.108;2022-07-23T01:34:35;99251.56;;;18.47;100.00
21960;BME280;11144;43.030;25.108;2022-07-23T01:36:09;99246.88;;;18.50;100.00
21960;BME280;11144;43.030;25.108;2022-07-23T01:37:42;99252.25;;;18.50;100.00
21960;BME280;11144;43.030;25.108;2022-07-23T01:39:18;99248.78;;;18.48;100.00
21960;BME280;11144;43.030;25.108;2022-07-23T01:40:52;99254.16;;;18.48;100.00
21960;BME280;11144;43.030;25.108;2022-07-23T01:42:30;99243.44;;;18.48;100.00
21960;BME280;11144;43.030;25.108;2022-07-23T01:44:07;99242.13;;;18.41;100.00
21960;BME280;11144;43.030;25.108;2022-07-23T01:45:42;99242.13;;;18.41;100.00
21960;BME280;11144;43.030;25.108;2022-07-23T01:47:17;99251.34;;;18.37;100.00
21960;BME280;11144;43.030;25.108;2022-07-23T01:48:53;99250.69;;;18.34;100.00
21960;BME280;11144;43.030;25.108;2022-07-23T01:50:46;99245.84;;;18.26;100.00
21960;BME280;11144;43.030;25.108;2022-07-23T01:52:30;99245.09;;;18.24;100.00
21960;BME280;11144;43.030;25.108;2022-07-23T01:54:03;99248.72;;;18.23;100.00
21960;BME280;11144;43.030;25.108;2022-07-23T01:55:37;99237.69;;;18.15;100.00
21960;BME280;11144;43.030;25.108;2022-07-23T01:57:11;99247.41;;;18.16;100.00
21960;BME280;11144;43.030;25.108;2022-07-23T01:58:44;99257.78;;;18.08;100.00
21960;BME280;11144;43.030;25.108;2022-07-23T02:00:18;99253.81;;;18.01;100.00
21960;BME280;11144;43.030;25.108;2022-07-23T02:01:53;99249.06;;;17.92;100.00
21960;BME280;11144;43.030;25.108;2022-07-23T02:03:26;99252.72;;;17.91;100.00
21960;BME280;11144;43.030;25.108;2022-07-23T02:05:00;99254.22;;;17.95;100.00
21960;BME280;11144;43.030;25.108;2022-07-23T02:06:32;99249.31;;;18.02;100.00
21960;BME280;11144;43.030;25.108;2022-07-23T02:08:06;99257.69;;;18.10;100.00
21960;BME280;11144;43.030;25.108;2022-07-23T02:09:41;99251.94;;;18.16;100.00
21960;BME280;11144;43.030;25.108;2022-07-23T02:11:18;99256.22;;;18.18;100.00
21960;BME280;11144;43.030;25.108;2022-07-23T02:12:50;99252.56;;;18.19;100.00
21960;BME280;11144;43.030;25.108;2022-07-23T02:14:24;99251.06;;;18.15;100.00
21960;BME280;11144;43.030;25.108;2022-07-23T02:15:56;99254.50;;;18.17;100.00
21960;BME280;11144;43.030;25.108;2022-07-23T02:17:30;99249.16;;;18.17;100.00
21960;BME280;11144;43.030;25.108;2022-07-23T02:19:05;99258.03;;;18.18;100.00
21960;BME280;11144;43.030;25.108;2022-07-23T02:20:41;99253.22;;;18.23;100.00
21960;BME280;11144;43.030;25.108;2022-07-23T02:22:16;99250.22;;;18.27;100.00
21960;BME280;11144;43.030;25.108;2022-07-23T02:23:50;99248.81;;;18.22;100.00
21960;BME280;11144;43.030;25.108;2022-07-23T02:25:24;99252.38;;;18.22;100.00
21960;BME280;11144;43.030;25.108;2022-07-23T02:27:04;99252.38;;;18.22;100.00
21960;BME280;11144;43.030;25.108;2022-07-23T02:28:38;99243.22;;;18.12;100.00
21960;BME280;11144;43.030;25.108;2022-07-23T02:30:13;99249.75;;;18.08;100.00
21960;BME280;11144;43.030;25.108;2022-07-23T02:31:46;99253.59;;;18.04;100.00
21960;BME280;11144;43.030;25.108;2022-07-23T02:33:20;99260.91;;;18.02;100.00
21960;BME280;11144;43.030;25.108;2022-07-23T02:34:53;99259.59;;;17.95;100.00
21960;BME280;11144;43.030;25.108;2022-07-23T02:36:27;99266.63;;;17.96;100.00
21960;BME280;11144;43.030;25.108;2022-07-23T02:38:00;99266.63;;;17.96;100.00
21960;BME280;11144;43.030;25.108;2022-07-23T02:39:35;99261.50;;;17.93;100.00
21960;BME280;11144;43.030;25.108;2022-07-23T02:41:09;99257.84;;;17.94;100.00
21960;BME280;11144;43.030;25.108;2022-07-23T02:42:44;99268.97;;;17.88;100.00
21960;BME280;11144;43.030;25.108;2022-07-23T02:44:18;99272.81;;;17.84;100.00
21960;BME280;11144;43.030;25.108;2022-07-23T02:45:55;99275.50;;;17.84;100.00
21960;BME280;11144;43.030;25.108;2022-07-23T02:47:28;99284.16;;;17.88;100.00
21960;BME280;11144;43.030;25.108;2022-07-23T02:49:05;99284.06;;;17.89;100.00
21960;BME280;11144;43.030;25.108;2022-07-23T02:50:38;99279.53;;;17.77;100.00
21960;BME280;11144;43.030;25.108;2022-07-23T02:52:12;99286.59;;;17.78;100.00
21960;BME280;11144;43.030;25.108;2022-07-23T02:53:47;99288.97;;;17.83;100.00
21960;BME280;11144;43.030;25.108;2022-07-23T02:55:19;99280.94;;;17.83;100.00
21960;BME280;11144;43.030;25.108;2022-07-23T02:56:53;99289.06;;;17.81;100.00
21960;BME280;11144;43.030;25.108;2022-07-23T02:58:27;99294.41;;;17.81;100.00
21960;BME280;11144;43.030;25.108;2022-07-23T03:00:00;99285.72;;;17.78;100.00
21960;BME280;11144;43.030;25.108;2022-07-23T03:01:33;99294.59;;;17.78;100.00
21960;BME280;11144;43.030;25.108;2022-07-23T03:03:07;99292.72;;;17.80;100.00
21960;BME280;11144;43.030;25.108;2022-07-23T03:04:40;99287.56;;;17.77;100.00
21960;BME280;11144;43.030;25.108;2022-07-23T03:06:16;99291.16;;;17.76;100.00
21960;BME280;11144;43.030;25.108;2022-07-23T03:07:49;99292.91;;;17.77;100.00
21960;BME280;11144;43.030;25.108;2022-07-23T03:09:24;99298.63;;;17.71;100.00
21960;BME280;11144;43.030;25.108;2022-07-23T03:10:57;99298.84;;;17.68;100.00
21960;BME280;11144;43.030;25.108;2022-07-23T03:12:30;99291.31;;;17.61;100.00
21960;BME280;11144;43.030;25.108;2022-07-23T03:14:05;99299.00;;;17.53;100.00
21960;BME280;11144;43.030;25.108;2022-07-23T03:15:40;99296.22;;;17.54;100.00
21960;BME280;11144;43.030;25.108;2022-07-23T03:17:14;99300.59;;;17.55;100.00
21960;BME280;11144;43.030;25.108;2022-07-23T03:18:48;99300.00;;;17.50;100.00
21960;BME280;11144;43.030;25.108;2022-07-23T03:20:20;99304.63;;;17.48;100.00
21960;BME280;11144;43.030;25.108;2022-07-23T03:21:53;99303.47;;;17.52;100.00
21960;BME280;11144;43.030;25.108;2022-07-23T03:23:27;99315.50;;;17.59;100.00
21960;BME280;11144;43.030;25.108;2022-07-23T03:25:00;99312.81;;;17.59;100.00
21960;BME280;11144;43.030;25.108;2022-07-23T03:26:38;99312.03;;;17.57;100.00
21960;BME280;11144;43.030;25.108;2022-07-23T03:28:12;99314.53;;;17.60;100.00
21960;BME280;11144;43.030;25.108;2022-07-23T03:29:46;99317.97;;;17.62;100.00
21960;BME280;11144;43.030;25.108;2022-07-23T03:31:20;99312.31;;;17.67;100.00
21960;BME280;11144;43.030;25.108;2022-07-23T03:32:53;99314.88;;;17.68;100.00
21960;BME280;11144;43.030;25.108;2022-07-23T03:34:27;99312.31;;;17.67;100.00
21960;BME280;11144;43.030;25.108;2022-07-23T03:36:01;99319.41;;;17.68;100.00
21960;BME280;11144;43.030;25.108;2022-07-23T03:37:42;99317.38;;;17.71;100.00
21960;BME280;11144;43.030;25.108;2022-07-23T03:39:18;99314.88;;;17.68;100.00
21960;BME280;11144;43.030;25.108;2022-07-23T03:40:51;99317.00;;;17.63;100.00
21960;BME280;11144;43.030;25.108;2022-07-23T03:42:25;99314.81;;;17.56;100.00
21960;BME280;11144;43.030;25.108;2022-07-23T03:43:58;99312.66;;;17.48;100.00
21960;BME280;11144;43.030;25.108;2022-07-23T03:45:33;99323.44;;;17.47;100.00
21960;BME280;11144;43.030;25.108;2022-07-23T03:47:06;99324.22;;;17.49;100.00
21960;BME280;11144;43.030;25.108;2022-07-23T03:48:40;99323.16;;;17.51;100.00
21960;BME280;11144;43.030;25.108;2022-07-23T03:50:14;99326.00;;;17.62;100.00
21960;BME280;11144;43.030;25.108;2022-07-23T03:51:47;99323.88;;;17.67;100.00
21960;BME280;11144;43.030;25.108;2022-07-23T03:53:20;99312.97;;;17.70;100.00
21960;BME280;11144;43.030;25.108;2022-07-23T03:54:53;99329.38;;;17.78;100.00
21960;BME280;11144;43.030;25.108;2022-07-23T03:56:28;99322.69;;;17.85;100.00
21960;BME280;11144;43.030;25.108;2022-07-23T03:58:01;99322.84;;;17.96;100.00
21960;BME280;11144;43.030;25.108;2022-07-23T03:59:35;99333.69;;;18.07;100.00
21960;BME280;11144;43.030;25.108;2022-07-23T04:01:09;99331.38;;;18.15;100.00
21960;BME280;11144;43.030;25.108;2022-07-23T04:02:44;99322.16;;;18.19;100.00
21960;BME280;11144;43.030;25.108;2022-07-23T04:04:17;99317.25;;;18.13;100.00
21960;BME280;11144;43.030;25.108;2022-07-23T04:05:51;99331.59;;;18.25;100.00
21960;BME280;11144;43.030;25.108;2022-07-23T04:07:26;99331.84;;;18.34;100.00
21960;BME280;11144;43.030;25.108;2022-07-23T04:08:59;99326.88;;;18.42;100.00
21960;BME280;11144;43.030;25.108;2022-07-23T04:10:35;99336.19;;;18.49;100.00
21960;BME280;11144;43.030;25.108;2022-07-23T04:12:10;99332.16;;;18.56;100.00
21960;BME280;11144;43.030;25.108;2022-07-23T04:13:44;99333.03;;;18.57;100.00
21960;BME280;11144;43.030;25.108;2022-07-23T04:15:18;99335.16;;;18.64;100.00
21960;BME280;11144;43.030;25.108;2022-07-23T04:16:52;99333.97;;;18.68;100.00
21960;BME280;11144;43.030;25.108;2022-07-23T04:18:26;99336.25;;;18.74;100.00
21960;BME280;11144;43.030;25.108;2022-07-23T04:20:07;99324.91;;;18.83;100.00
21960;BME280;11144;43.030;25.108;2022-07-23T04:21:51;99327.91;;;18.91;100.00
21960;BME280;11144;43.030;25.108;2022-07-23T04:23:24;99332.22;;;18.94;100.00
21960;BME280;11144;43.030;25.108;2022-07-23T04:24:57;99325.56;;;18.99;100.00
21960;BME280;11144;43.030;25.108;2022-07-23T04:26:31;99330.47;;;19.05;100.00
21960;BME280;11144;43.030;25.108;2022-07-23T04:28:04;99333.72;;;19.10;100.00
21960;BME280;11144;43.030;25.108;2022-07-23T04:29:37;99331.34;;;19.18;100.00
21960;BME280;11144;43.030;25.108;2022-07-23T04:31:11;99326.88;;;19.31;100.00
21960;BME280;11144;43.030;25.108;2022-07-23T04:32:46;99327.69;;;19.44;100.00
21960;BME280;11144;43.030;25.108;2022-07-23T04:34:29;99328.53;;;19.57;100.00
21960;BME280;11144;43.030;25.108;2022-07-23T04:36:03;99328.38;;;19.71;100.00
21960;BME280;11144;43.030;25.108;2022-07-23T04:37:36;99334.88;;;19.92;100.00
21960;BME280;11144;43.030;25.108;2022-07-23T04:39:10;99330.03;;;20.21;100.00
21960;BME280;11144;43.030;25.108;2022-07-23T04:40:43;99335.81;;;20.51;100.00
21960;BME280;11144;43.030;25.108;2022-07-23T04:42:17;99334.72;;;20.88;100.00
21960;BME280;11144;43.030;25.108;2022-07-23T04:43:50;99336.50;;;21.22;100.00
21960;BME280;11144;43.030;25.108;2022-07-23T04:45:24;99334.16;;;21.62;100.00
21960;BME280;11144;43.030;25.108;2022-07-23T04:47:01;99335.41;;;21.91;100.00
21960;BME280;11144;43.030;25.108;2022-07-23T04:48:35;99331.13;;;22.31;100.00
21960;BME280;11144;43.030;25.108;2022-07-23T04:50:13;99318.25;;;22.66;100.00
21960;BME280;11144;43.030;25.108;2022-07-23T04:51:50;99331.03;;;23.05;100.00
21960;BME280;11144;43.030;25.108;2022-07-23T04:53:24;99334.78;;;23.34;100.00
21960;BME280;11144;43.030;25.108;2022-07-23T04:55:01;99325.94;;;23.62;100.00
21960;BME280;11144;43.030;25.108;2022-07-23T04:56:34;99326.63;;;23.94;100.00
21960;BME280;11144;43.030;25.108;2022-07-23T04:58:09;99326.97;;;24.29;100.00
21960;BME280;11144;43.030;25.108;2022-07-23T04:59:43;99328.47;;;24.62;100.00
21960;BME280;11144;43.030;25.108;2022-07-23T05:01:17;99322.16;;;24.80;100.00
21960;BME280;11144;43.030;25.108;2022-07-23T05:02:51;99317.84;;;25.06;100.00
21960;BME280;11144;43.030;25.108;2022-07-23T05:04:26;99320.97;;;25.30;100.00
21960;BME280;11144;43.030;25.108;2022-07-23T05:06:03;99324.00;;;25.64;100.00
21960;BME280;11144;43.030;25.108;2022-07-23T05:07:36;99324.34;;;25.78;100.00
21960;BME280;11144;43.030;25.108;2022-07-23T05:09:10;99319.84;;;25.97;100.00
21960;BME280;11144;43.030;25.108;2022-07-23T05:10:44;99318.78;;;26.25;100.00
21960;BME280;11144;43.030;25.108;2022-07-23T05:12:18;99312.47;;;26.34;100.00
21960;BME280;11144;43.030;25.108;2022-07-23T05:13:51;99307.88;;;26.52;100.00
21960;BME280;11144;43.030;25.108;2022-07-23T05:15:26;99309.06;;;26.67;100.00
21960;BME280;11144;43.030;25.108;2022-07-23T05:16:59;99305.16;;;26.87;100.00
21960;BME280;11144;43.030;25.108;2022-07-23T05:18:33;99301.56;;;27.04;100.00
21960;BME280;11144;43.030;25.108;2022-07-23T05:20:08;99303.16;;;27.14;100.00
21960;BME280;11144;43.030;25.108;2022-07-23T05:21:42;99298.81;;;27.47;100.00
21960;BME280;11144;43.030;25.108;2022-07-23T05:23:16;99304.00;;;27.66;100.00
21960;BME280;11144;43.030;25.108;2022-07-23T05:24:50;99304.03;;;27.74;100.00
21960;BME280;11144;43.030;25.108;2022-07-23T05:26:23;99292.22;;;27.91;100.00
21960;BME280;11144;43.030;25.108;2022-07-23T05:27:57;99295.91;;;28.15;100.00
21960;BME280;11144;43.030;25.108;2022-07-23T05:29:30;99296.06;;;28.22;100.00
21960;BME280;11144;43.030;25.108;2022-07-23T05:31:04;99293.41;;;28.46;100.00
21960;BME280;11144;43.030;25.108;2022-07-23T05:32:38;99299.22;;;28.59;100.00
21960;BME280;11144;43.030;25.108;2022-07-23T05:34:19;99291.91;;;28.75;100.00
21960;BME280;11144;43.030;25.108;2022-07-23T05:35:54;99300.78;;;28.85;100.00
21960;BME280;11144;43.030;25.108;2022-07-23T05:37:34;99287.66;;;28.81;100.00
21960;BME280;11144;43.030;25.108;2022-07-23T05:39:07;99297.56;;;29.06;100.00
21960;BME280;11144;43.030;25.108;2022-07-23T05:40:42;99297.19;;;29.17;100.00
21960;BME280;11144;43.030;25.108;2022-07-23T05:42:16;99298.38;;;29.23;100.00
21960;BME280;11144;43.030;25.108;2022-07-23T05:43:50;99293.03;;;29.37;100.00
21960;BME280;11144;43.030;25.108;2022-07-23T05:45:23;99297.78;;;29.51;100.00
21960;BME280;11144;43.030;25.108;2022-07-23T05:46:56;99291.28;;;29.52;100.00
21960;BME280;11144;43.030;25.108;2022-07-23T05:48:31;99304.59;;;29.55;100.00
21960;BME280;11144;43.030;25.108;2022-07-23T05:50:16;99297.44;;;29.54;100.00
21960;BME280;11144;43.030;25.108;2022-07-23T05:51:56;99295.38;;;29.56;100.00
21960;BME280;11144;43.030;25.108;2022-07-23T05:53:40;99303.50;;;29.80;100.00
21960;BME280;11144;43.030;25.108;2022-07-23T05:55:18;99304.06;;;30.06;100.00
21960;BME280;11144;43.030;25.108;2022-07-23T05:56:51;99302.94;;;30.31;100.00
21960;BME280;11144;43.030;25.108;2022-07-23T05:58:24;99292.03;;;30.31;100.00
21960;BME280;11144;43.030;25.108;2022-07-23T05:59:58;99284.75;;;30.46;100.00
21960;BME280;11144;43.030;25.108;2022-07-23T06:01:32;99291.03;;;30.69;100.00
21960;BME280;11144;43.030;25.108;2022-07-23T06:03:11;99294.09;;;30.97;100.00
21960;BME280;11144;43.030;25.108;2022-07-23T06:04:45;99291.78;;;31.08;100.00
21960;BME280;11144;43.030;25.108;2022-07-23T06:06:27;99293.75;;;31.14;100.00
21960;BME280;11144;43.030;25.108;2022-07-23T06:08:02;99304.13;;;31.41;100.00
21960;BME280;11144;43.030;25.108;2022-07-23T06:09:36;99290.25;;;31.57;100.00
21960;BME280;11144;43.030;25.108;2022-07-23T06:11:09;99297.81;;;31.85;100.00
21960;BME280;11144;43.030;25.108;2022-07-23T06:12:43;99294.00;;;32.00;100.00
21960;BME280;11144;43.030;25.108;2022-07-23T06:14:17;99298.81;;;32.13;100.00
21960;BME280;11144;43.030;25.108;2022-07-23T06:15:56;99299.72;;;32.20;100.00
21960;BME280;11144;43.030;25.108;2022-07-23T06:17:29;99295.75;;;32.37;100.00
21960;BME280;11144;43.030;25.108;2022-07-23T06:19:02;99297.72;;;32.64;100.00
21960;BME280;11144;43.030;25.108;2022-07-23T06:20:36;99296.81;;;32.99;100.00
21960;BME280;11144;43.030;25.108;2022-07-23T06:22:09;99297.63;;;32.93;100.00
21960;BME280;11144;43.030;25.108;2022-07-23T06:23:44;99297.97;;;33.11;100.00
21960;BME280;11144;43.030;25.108;2022-07-23T06:25:17;99296.63;;;33.28;100.00
21960;BME280;11144;43.030;25.108;2022-07-23T06:26:52;99296.72;;;33.34;100.00
21960;BME280;11144;43.030;25.108;2022-07-23T06:28:26;99302.09;;;33.49;100.00
21960;BME280;11144;43.030;25.108;2022-07-23T06:29:59;99293.75;;;33.63;100.00
21960;BME280;11144;43.030;25.108;2022-07-23T06:31:33;99294.91;;;33.82;100.00
21960;BME280;11144;43.030;25.108;2022-07-23T06:33:06;99291.00;;;33.63;100.00
21960;BME280;11144;43.030;25.108;2022-07-23T06:34:39;99287.09;;;33.45;100.00
21960;BME280;11144;43.030;25.108;2022-07-23T06:36:19;99290.88;;;33.44;100.00
21960;BME280;11144;43.030;25.108;2022-07-23T06:37:53;99287.09;;;33.45;100.00
21960;BME280;11144;43.030;25.108;2022-07-23T06:39:28;99283.34;;;33.59;100.00
21960;BME280;11144;43.030;25.108;2022-07-23T06:41:03;99294.50;;;33.85;100.00
21960;BME280;11144;43.030;25.108;2022-07-23T06:42:36;99286.63;;;34.16;100.00
21960;BME280;11144;43.030;25.108;2022-07-23T06:44:11;99291.38;;;34.35;100.00
21960;BME280;11144;43.030;25.108;2022-07-23T06:45:47;99281.25;;;34.42;100.00
21960;BME280;11144;43.030;25.108;2022-07-23T06:47:20;99284.00;;;34.42;100.00
21960;BME280;11144;43.030;25.108;2022-07-23T06:48:54;99278.34;;;34.63;100.00
21960;BME280;11144;43.030;25.108;2022-07-23T06:50:28;99277.75;;;34.87;100.00
21960;BME280;11144;43.030;25.108;2022-07-23T06:52:01;99279.25;;;35.09;100.00
21960;BME280;11144;43.030;25.108;2022-07-23T06:53:37;99281.78;;;35.17;100.00
21960;BME280;11144;43.030;25.108;2022-07-23T06:55:15;99276.69;;;35.27;100.00
21960;BME280;11144;43.030;25.108;2022-07-23T06:56:49;99275.44;;;35.23;100.00
21960;BME280;11144;43.030;25.108;2022-07-23T06:58:23;99274.16;;;35.19;100.00
21960;BME280;11144;43.030;25.108;2022-07-23T06:59:56;99276.28;;;35.17;100.00
21960;BME280;11144;43.030;25.108;2022-07-23T07:01:30;99268.25;;;35.09;100.00
21960;BME280;11144;43.030;25.108;2022-07-23T07:03:03;99267.38;;;35.02;100.00
21960;BME280;11144;43.030;25.108;2022-07-23T07:04:37;99269.50;;;35.26;100.00
21960;BME280;11144;43.030;25.108;2022-07-23T07:06:10;99266.75;;;35.26;100.00
21960;BME280;11144;43.030;25.108;2022-07-23T07:07:43;99269.94;;;35.23;100.00
21960;BME280;11144;43.030;25.108;2022-07-23T07:09:17;99269.72;;;35.38;100.00
21960;BME280;11144;43.030;25.108;2022-07-23T07:10:52;99266.09;;;35.50;100.00
21960;BME280;11144;43.030;25.108;2022-07-23T07:12:25;99268.81;;;35.70;100.00
21960;BME280;11144;43.030;25.108;2022-07-23T07:13:59;99272.16;;;35.91;100.00
21960;BME280;11144;43.030;25.108;2022-07-23T07:15:32;99263.09;;;35.78;100.00
21960;BME280;11144;43.030;25.108;2022-07-23T07:17:06;99269.84;;;35.75;100.00
21960;BME280;11144;43.030;25.108;2022-07-23T07:18:39;99271.13;;;35.79;100.00
21960;BME280;11144;43.030;25.108;2022-07-23T07:20:13;99263.09;;;35.78;100.00
21960;BME280;11144;43.030;25.108;2022-07-23T07:21:46;99255.50;;;35.60;100.00
21960;BME280;11144;43.030;25.108;2022-07-23T07:23:19;99260.13;;;35.79;100.00
21960;BME280;11144;43.030;25.108;2022-07-23T07:24:53;99268.13;;;35.87;100.00
21960;BME280;11144;43.030;25.108;2022-07-23T07:26:28;99259.75;;;36.13;100.00
21960;BME280;11144;43.030;25.108;2022-07-23T07:28:03;99253.06;;;35.96;100.00
21960;BME280;11144;43.030;25.108;2022-07-23T07:29:36;99247.91;;;36.06;100.00
21960;BME280;11144;43.030;25.108;2022-07-23T07:31:09;99257.91;;;36.07;100.00
21960;BME280;11144;43.030;25.108;2022-07-23T07:32:43;99250.78;;;35.80;100.00
21960;BME280;11144;43.030;25.108;2022-07-23T07:34:32;99250.06;;;36.04;100.00
21960;BME280;11144;43.030;25.108;2022-07-23T07:36:06;99251.44;;;35.82;100.00
21960;BME280;11144;43.030;25.108;2022-07-23T07:37:39;99244.44;;;35.73;100.00
21960;BME280;11144;43.030;25.108;2022-07-23T07:39:12;99248.03;;;35.74;100.00
21960;BME280;11144;43.030;25.108;2022-07-23T07:40:46;99245.16;;;36.06;100.00
21960;BME280;11144;43.030;25.108;2022-07-23T07:42:21;99242.13;;;36.27;100.00
21960;BME280;11144;43.030;25.108;2022-07-23T07:43:55;99239.09;;;36.35;100.00
21960;BME280;11144;43.030;25.108;2022-07-23T07:45:28;99240.41;;;36.33;100.00
21960;BME280;11144;43.030;25.108;2022-07-23T07:47:02;99244.59;;;36.35;100.00
21960;BME280;11144;43.030;25.108;2022-07-23T07:48:35;99243.56;;;36.67;100.00
21960;BME280;11144;43.030;25.108;2022-07-23T07:50:09;99239.31;;;37.20;100.00
21960;BME280;11144;43.030;25.108;2022-07-23T07:51:43;99245.34;;;37.54;100.00
21960;BME280;11144;43.030;25.108;2022-07-23T07:53:16;99245.72;;;37.64;100.00
21960;BME280;11144;43.030;25.108;2022-07-23T07:54:50;99239.28;;;37.88;100.00
21960;BME280;11144;43.030;25.108;2022-07-23T07:56:23;99243.31;;;38.03;100.00
21960;BME280;11144;43.030;25.108;2022-07-23T07:57:59;99234.97;;;37.92;100.00
21960;BME280;11144;43.030;25.108;2022-07-23T07:59:33;99236.31;;;38.01;100.00
21960;BME280;11144;43.030;25.108;2022-07-23T08:01:06;99231.03;;;38.17;100.00
21960;BME280;11144;43.030;25.108;2022-07-23T08:02:41;99227.56;;;38.22;100.00
21960;BME280;11144;43.030;25.108;2022-07-23T08:04:15;99224.75;;;38.40;100.00
21960;BME280;11144;43.030;25.108;2022-07-23T08:05:49;99228.25;;;38.65;100.00
21960;BME280;11144;43.030;25.108;2022-07-23T08:07:22;99228.63;;;38.91;100.00